sensor_id;sensor_type;location;lat;lon;timestamp;temperature;humidity
69595;DHT22;56800;52.142;5.364;2023-06-26T00:01:05;24.60;52.50
69595;DHT22;56800;52.142;5.364;2023-06-26T00:03:32;24.60;52.30
69595;DHT22;56800;52.142;5.364;2023-06-26T00:06:01;24.60;52.20
69595;DHT22;56800;52.142;5.364;2023-06-26T00:08:28;24.60;52.10
69595;DHT22;56800;52.142;5.364;2023-06-26T00:10:55;24.60;52.90
69595;DHT22;56800;52.142;5.364;2023-06-26T00:13:23;24.70;52.80
69595;DHT22;56800;52.142;5.364;2023-06-26T00:15:51;24.70;51.50
69595;DHT22;56800;52.142;5.364;2023-06-26T00:18:18;24.70;51.50
69595;DHT22;56800;52.142;5.364;2023-06-26T00:20:44;24.70;51.30
69595;DHT22;56800;52.142;5.364;2023-06-26T00:23:12;24.70;51.30
69595;DHT22;56800;52.142;5.364;2023-06-26T00:25:39;24.70;51.30
69595;DHT22;56800;52.142;5.364;2023-06-26T00:28:06;24.70;51.30
69595;DHT22;56800;52.142;5.364;2023-06-26T00:30:33;24.80;51.40
69595;DHT22;56800;52.142;5.364;2023-06-26T00:33:00;24.80;51.50
69595;DHT22;56800;52.142;5.364;2023-06-26T00:35:27;24.80;51.50
69595;DHT22;56800;52.142;5.364;2023-06-26T00:37:54;24.80;51.60
69595;DHT22;56800;52.142;5.364;2023-06-26T00:40:21;24.80;51.70
69595;DHT22;56800;52.142;5.364;2023-06-26T00:42:49;24.80;51.80
69595;DHT22;56800;52.142;5.364;2023-06-26T00:45:16;24.80;51.90
69595;DHT22;56800;52.142;5.364;2023-06-26T00:47:55;24.80;52.00
69595;DHT22;56800;52.142;5.364;2023-06-26T00:50:22;24.70;52.10
69595;DHT22;56800;52.142;5.364;2023-06-26T00:52:50;24.70;52.30
69595;DHT22;56800;52.142;5.364;2023-06-26T00:55:17;24.70;52.30
69595;DHT22;56800;52.142;5.364;2023-06-26T00:57:44;24.70;52.30
69595;DHT22;56800;52.142;5.364;2023-06-26T01:00:12;24.60;52.40
69595;DHT22;56800;52.142;5.364;2023-06-26T01:02:39;24.60;52.50
69595;DHT22;56800;52.142;5.364;2023-06-26T01:05:07;24.50;52.70
69595;DHT22;56800;52.142;5.364;2023-06-26T01:07:35;24.50;52.90
69595;DHT22;56800;52.142;5.364;2023-06-26T01:10:06;24.50;53.20
69595;DHT22;56800;52.142;5.364;2023-06-26T01:12:34;24.40;53.30
69595;DHT22;56800;52.142;5.364;2023-06-26T01:15:00;24.40;53.40
69595;DHT22;56800;52.142;5.364;2023-06-26T01:17:27;24.30;53.50
69595;DHT22;56800;52.142;5.364;2023-06-26T01:20:03;24.30;53.70
69595;DHT22;56800;52.142;5.364;2023-06-26T01:22:52;24.30;53.90
69595;DHT22;56800;52.142;5.364;2023-06-26T01:28:07;24.20;54.40
69595;DHT22;56800;52.142;5.364;2023-06-26T01:30:37;24.20;54.40
69595;DHT22;56800;52.142;5.364;2023-06-26T01:33:05;24.20;54.50
69595;DHT22;56800;52.142;5.364;2023-06-26T01:35:32;24.10;54.60
69595;DHT22;56800;52.142;5.364;2023-06-26T01:38:19;24.10;54.60
69595;DHT22;56800;52.142;5.364;2023-06-26T01:40:47;24.00;54.60
69595;DHT22;56800;52.142;5.364;2023-06-26T01:43:41;24.00;54.50
69595;DHT22;56800;52.142;5.364;2023-06-26T01:48:55;23.90;54.50
69595;DHT22;56800;52.142;5.364;2023-06-26T01:51:30;23.80;54.50
69595;DHT22;56800;52.142;5.364;2023-06-26T01:53:59;23.70;54.60
69595;DHT22;56800;52.142;5.364;2023-06-26T01:56:28;23.70;54.60
69595;DHT22;56800;52.142;5.364;2023-06-26T01:58:55;23.70;54.80
69595;DHT22;56800;52.142;5.364;2023-06-26T02:01:23;23.70;54.80
69595;DHT22;56800;52.142;5.364;2023-06-26T02:03:50;23.60;54.90
69595;DHT22;56800;52.142;5.364;2023-06-26T02:06:17;23.50;55.00
69595;DHT22;56800;52.142;5.364;2023-06-26T02:08:44;23.50;55.20
69595;DHT22;56800;52.142;5.364;2023-06-26T02:11:10;23.40;55.30
69595;DHT22;56800;52.142;5.364;2023-06-26T02:13:37;23.40;55.60
69595;DHT22;56800;52.142;5.364;2023-06-26T02:16:04;23.30;55.70
69595;DHT22;56800;52.142;5.364;2023-06-26T02:18:30;23.30;55.90
69595;DHT22;56800;52.142;5.364;2023-06-26T02:20:57;23.30;56.10
69595;DHT22;56800;52.142;5.364;2023-06-26T02:23:24;23.20;56.10
69595;DHT22;56800;52.142;5.364;2023-06-26T02:25:50;23.20;56.20
69595;DHT22;56800;52.142;5.364;2023-06-26T02:28:17;23.20;56.30
69595;DHT22;56800;52.142;5.364;2023-06-26T02:30:44;23.20;56.60
69595;DHT22;56800;52.142;5.364;2023-06-26T02:33:10;23.10;56.90
69595;DHT22;56800;52.142;5.364;2023-06-26T02:35:37;23.10;57.10
69595;DHT22;56800;52.142;5.364;2023-06-26T02:38:04;23.00;57.40
69595;DHT22;56800;52.142;5.364;2023-06-26T02:40:31;23.00;57.50
69595;DHT22;56800;52.142;5.364;2023-06-26T02:42:57;23.00;57.70
69595;DHT22;56800;52.142;5.364;2023-06-26T02:45:24;22.90;58.00
69595;DHT22;56800;52.142;5.364;2023-06-26T02:47:51;22.90;58.20
69595;DHT22;56800;52.142;5.364;2023-06-26T02:50:18;22.80;58.30
69595;DHT22;56800;52.142;5.364;2023-06-26T02:52:44;22.80;58.60
69595;DHT22;56800;52.142;5.364;2023-06-26T02:55:14;22.70;58.70
69595;DHT22;56800;52.142;5.364;2023-06-26T02:57:41;22.70;59.10
69595;DHT22;56800;52.142;5.364;2023-06-26T03:00:08;22.60;59.20
69595;DHT22;56800;52.142;5.364;2023-06-26T03:02:35;22.60;59.30
69595;DHT22;56800;52.142;5.364;2023-06-26T03:05:02;22.60;59.50
69595;DHT22;56800;52.142;5.364;2023-06-26T03:07:30;22.50;59.60
69595;DHT22;56800;52.142;5.364;2023-06-26T03:09:57;22.50;60.60
69595;DHT22;56800;52.142;5.364;2023-06-26T03:12:25;22.50;59.90
69595;DHT22;56800;52.142;5.364;2023-06-26T03:14:52;22.40;60.00
69595;DHT22;56800;52.142;5.364;2023-06-26T03:17:18;22.40;60.10
69595;DHT22;56800;52.142;5.364;2023-06-26T03:19:45;22.40;60.30
69595;DHT22;56800;52.142;5.364;2023-06-26T03:22:12;22.40;60.40
69595;DHT22;56800;52.142;5.364;2023-06-26T03:24:38;22.30;60.40
69595;DHT22;56800;52.142;5.364;2023-06-26T03:27:05;22.30;60.50
69595;DHT22;56800;52.142;5.364;2023-06-26T03:29:32;22.30;60.50
69595;DHT22;56800;52.142;5.364;2023-06-26T03:31:59;22.30;60.60
69595;DHT22;56800;52.142;5.364;2023-06-26T03:34:25;22.30;60.60
69595;DHT22;56800;52.142;5.364;2023-06-26T03:36:52;22.20;60.70
69595;DHT22;56800;52.142;5.364;2023-06-26T03:39:19;22.20;60.70
69595;DHT22;56800;52.142;5.364;2023-06-26T03:41:46;22.20;60.70
69595;DHT22;56800;52.142;5.364;2023-06-26T03:44:12;22.10;60.80
69595;DHT22;56800;52.142;5.364;2023-06-26T03:46:39;22.10;60.80
69595;DHT22;56800;52.142;5.364;2023-06-26T03:49:06;22.10;61.00
69595;DHT22;56800;52.142;5.364;2023-06-26T03:51:36;22.10;61.00
69595;DHT22;56800;52.142;5.364;2023-06-26T03:54:03;22.00;61.00
69595;DHT22;56800;52.142;5.364;2023-06-26T03:56:30;22.00;61.10
69595;DHT22;56800;52.142;5.364;2023-06-26T03:58:56;21.90;61.20
69595;DHT22;56800;52.142;5.364;2023-06-26T04:01:23;21.90;61.20
69595;DHT22;56800;52.142;5.364;2023-06-26T04:03:50;21.90;61.30
69595;DHT22;56800;52.142;5.364;2023-06-26T04:06:17;21.80;61.40
69595;DHT22;56800;52.142;5.364;2023-06-26T04:08:43;21.80;61.50
69595;DHT22;56800;52.142;5.364;2023-06-26T04:11:10;21.70;61.50
69595;DHT22;56800;52.142;5.364;2023-06-26T04:13:37;21.70;61.60
69595;DHT22;56800;52.142;5.364;2023-06-26T04:16:04;21.70;61.70
69595;DHT22;56800;52.142;5.364;2023-06-26T04:18:30;21.60;61.70
69595;DHT22;56800;52.142;5.364;2023-06-26T04:23:34;21.60;62.00
69595;DHT22;56800;52.142;5.364;2023-06-26T04:26:01;21.50;61.90
69595;DHT22;56800;52.142;5.364;2023-06-26T04:28:29;21.50;61.90
69595;DHT22;56800;52.142;5.364;2023-06-26T04:30:55;21.50;62.00
69595;DHT22;56800;52.142;5.364;2023-06-26T04:33:22;21.50;62.00
69595;DHT22;56800;52.142;5.364;2023-06-26T04:35:49;21.50;62.10
69595;DHT22;56800;52.142;5.364;2023-06-26T04:38:16;21.40;62.10
69595;DHT22;56800;52.142;5.364;2023-06-26T04:40:43;21.40;62.10
69595;DHT22;56800;52.142;5.364;2023-06-26T04:43:10;21.40;62.20
69595;DHT22;56800;52.142;5.364;2023-06-26T04:45:37;21.30;62.30
69595;DHT22;56800;52.142;5.364;2023-06-26T04:48:04;21.30;62.30
69595;DHT22;56800;52.142;5.364;2023-06-26T04:50:32;21.30;62.50
69595;DHT22;56800;52.142;5.364;2023-06-26T04:53:00;21.30;62.50
69595;DHT22;56800;52.142;5.364;2023-06-26T04:55:26;21.20;62.40
69595;DHT22;56800;52.142;5.364;2023-06-26T04:57:53;21.20;62.40
69595;DHT22;56800;52.142;5.364;2023-06-26T05:00:20;21.20;63.20
69595;DHT22;56800;52.142;5.364;2023-06-26T05:02:47;21.20;62.60
69595;DHT22;56800;52.142;5.364;2023-06-26T05:05:14;21.10;62.50
69595;DHT22;56800;52.142;5.364;2023-06-26T05:07:41;21.10;62.50
69595;DHT22;56800;52.142;5.364;2023-06-26T05:10:09;21.10;62.60
69595;DHT22;56800;52.142;5.364;2023-06-26T05:12:35;21.10;62.60
69595;DHT22;56800;52.142;5.364;2023-06-26T05:15:02;21.00;62.60
69595;DHT22;56800;52.142;5.364;2023-06-26T05:17:29;21.00;62.70
69595;DHT22;56800;52.142;5.364;2023-06-26T05:19:56;21.00;62.80
69595;DHT22;56800;52.142;5.364;2023-06-26T05:22:26;21.00;62.80
69595;DHT22;56800;52.142;5.364;2023-06-26T05:24:54;21.00;62.90
69595;DHT22;56800;52.142;5.364;2023-06-26T05:27:21;21.00;62.90
69595;DHT22;56800;52.142;5.364;2023-06-26T05:29:49;21.00;62.90
69595;DHT22;56800;52.142;5.364;2023-06-26T05:32:16;20.90;63.00
69595;DHT22;56800;52.142;5.364;2023-06-26T05:34:51;21.00;63.00
69595;DHT22;56800;52.142;5.364;2023-06-26T05:37:21;21.00;63.10
69595;DHT22;56800;52.142;5.364;2023-06-26T05:39:49;21.00;63.00
69595;DHT22;56800;52.142;5.364;2023-06-26T05:42:16;21.00;62.90
69595;DHT22;56800;52.142;5.364;2023-06-26T05:44:43;21.00;62.90
69595;DHT22;56800;52.142;5.364;2023-06-26T05:47:09;21.00;62.90
69595;DHT22;56800;52.142;5.364;2023-06-26T05:49:36;21.00;62.80
69595;DHT22;56800;52.142;5.364;2023-06-26T05:52:03;21.10;62.70
69595;DHT22;56800;52.142;5.364;2023-06-26T05:54:30;21.10;62.60
69595;DHT22;56800;52.142;5.364;2023-06-26T05:56:57;21.10;62.50
69595;DHT22;56800;52.142;5.364;2023-06-26T05:59:27;21.20;62.50
69595;DHT22;56800;52.142;5.364;2023-06-26T06:01:55;21.20;62.30
69595;DHT22;56800;52.142;5.364;2023-06-26T06:04:22;21.20;62.20
69595;DHT22;56800;52.142;5.364;2023-06-26T06:06:48;21.20;62.20
69595;DHT22;56800;52.142;5.364;2023-06-26T06:09:15;21.20;62.10
69595;DHT22;56800;52.142;5.364;2023-06-26T06:11:42;21.30;62.10
69595;DHT22;56800;52.142;5.364;2023-06-26T06:14:09;21.30;62.00
69595;DHT22;56800;52.142;5.364;2023-06-26T06:16:35;21.30;62.60
69595;DHT22;56800;52.142;5.364;2023-06-26T06:19:02;21.30;61.70
69595;DHT22;56800;52.142;5.364;2023-06-26T06:21:31;21.30;61.60
69595;DHT22;56800;52.142;5.364;2023-06-26T06:23:57;21.30;61.40
69595;DHT22;56800;52.142;5.364;2023-06-26T06:26:29;21.30;61.30
69595;DHT22;56800;52.142;5.364;2023-06-26T06:29:00;21.30;61.30
69595;DHT22;56800;52.142;5.364;2023-06-26T06:31:27;21.30;61.40
69595;DHT22;56800;52.142;5.364;2023-06-26T06:33:56;21.30;61.40
69595;DHT22;56800;52.142;5.364;2023-06-26T06:36:23;21.30;61.50
69595;DHT22;56800;52.142;5.364;2023-06-26T06:38:50;21.40;61.50
69595;DHT22;56800;52.142;5.364;2023-06-26T06:41:17;21.50;61.30
69595;DHT22;56800;52.142;5.364;2023-06-26T06:43:43;21.50;61.30
69595;DHT22;56800;52.142;5.364;2023-06-26T06:46:10;21.50;61.10
69595;DHT22;56800;52.142;5.364;2023-06-26T06:48:37;21.50;61.10
69595;DHT22;56800;52.142;5.364;2023-06-26T06:51:04;21.50;61.20
69595;DHT22;56800;52.142;5.364;2023-06-26T06:53:32;21.40;61.10
69595;DHT22;56800;52.142;5.364;2023-06-26T06:55:58;21.40;61.10
69595;DHT22;56800;52.142;5.364;2023-06-26T06:58:25;21.40;61.10
69595;DHT22;56800;52.142;5.364;2023-06-26T07:00:52;21.50;61.10
69595;DHT22;56800;52.142;5.364;2023-06-26T07:03:18;21.50;61.10
69595;DHT22;56800;52.142;5.364;2023-06-26T07:05:47;21.50;61.10
69595;DHT22;56800;52.142;5.364;2023-06-26T07:08:14;21.50;61.10
69595;DHT22;56800;52.142;5.364;2023-06-26T07:10:42;21.60;61.10
69595;DHT22;56800;52.142;5.364;2023-06-26T07:13:09;21.60;61.10
69595;DHT22;56800;52.142;5.364;2023-06-26T07:15:36;21.70;61.20
69595;DHT22;56800;52.142;5.364;2023-06-26T07:18:09;21.70;61.20
69595;DHT22;56800;52.142;5.364;2023-06-26T07:20:35;21.80;61.10
69595;DHT22;56800;52.142;5.364;2023-06-26T07:23:02;21.70;61.00
69595;DHT22;56800;52.142;5.364;2023-06-26T07:25:29;21.80;61.00
69595;DHT22;56800;52.142;5.364;2023-06-26T07:27:56;21.80;61.10
69595;DHT22;56800;52.142;5.364;2023-06-26T07:30:23;21.80;60.80
69595;DHT22;56800;52.142;5.364;2023-06-26T07:32:50;21.80;60.70
69595;DHT22;56800;52.142;5.364;2023-06-26T07:35:17;21.70;60.60
69595;DHT22;56800;52.142;5.364;2023-06-26T07:37:44;21.70;60.80
69595;DHT22;56800;52.142;5.364;2023-06-26T07:40:11;21.80;60.80
69595;DHT22;56800;52.142;5.364;2023-06-26T07:42:43;21.90;60.80
69595;DHT22;56800;52.142;5.364;2023-06-26T07:45:12;21.90;60.60
69595;DHT22;56800;52.142;5.364;2023-06-26T07:47:41;22.00;60.60
69595;DHT22;56800;52.142;5.364;2023-06-26T07:50:08;22.00;60.10
69595;DHT22;56800;52.142;5.364;2023-06-26T07:52:35;22.10;60.00
69595;DHT22;56800;52.142;5.364;2023-06-26T07:55:01;22.10;59.80
69595;DHT22;56800;52.142;5.364;2023-06-26T07:57:29;22.10;59.80
69595;DHT22;56800;52.142;5.364;2023-06-26T07:59:56;22.10;59.70
69595;DHT22;56800;52.142;5.364;2023-06-26T08:02:23;22.00;59.70
69595;DHT22;56800;52.142;5.364;2023-06-26T08:04:50;22.00;60.00
69595;DHT22;56800;52.142;5.364;2023-06-26T08:07:17;22.10;60.10
69595;DHT22;56800;52.142;5.364;2023-06-26T08:09:48;22.10;59.70
69595;DHT22;56800;52.142;5.364;2023-06-26T08:12:53;22.10;59.70
69595;DHT22;56800;52.142;5.364;2023-06-26T08:15:34;22.20;59.40
69595;DHT22;56800;52.142;5.364;2023-06-26T08:18:07;22.30;59.20
69595;DHT22;56800;52.142;5.364;2023-06-26T08:20:36;22.20;58.90
69595;DHT22;56800;52.142;5.364;2023-06-26T08:23:10;22.20;58.90
69595;DHT22;56800;52.142;5.364;2023-06-26T08:25:50;22.20;59.10
69595;DHT22;56800;52.142;5.364;2023-06-26T08:28:19;22.30;59.20
69595;DHT22;56800;52.142;5.364;2023-06-26T08:30:47;22.40;58.60
69595;DHT22;56800;52.142;5.364;2023-06-26T08:33:15;22.40;58.60
69595;DHT22;56800;52.142;5.364;2023-06-26T08:35:52;22.50;58.30
69595;DHT22;56800;52.142;5.364;2023-06-26T08:38:26;22.60;57.50
69595;DHT22;56800;52.142;5.364;2023-06-26T08:40:59;22.60;57.20
69595;DHT22;56800;52.142;5.364;2023-06-26T08:43:28;22.70;56.70
69595;DHT22;56800;52.142;5.364;2023-06-26T08:46:11;22.80;56.10
69595;DHT22;56800;52.142;5.364;2023-06-26T08:48:45;22.80;55.50
69595;DHT22;56800;52.142;5.364;2023-06-26T08:52:00;22.80;55.30
69595;DHT22;56800;52.142;5.364;2023-06-26T08:54:45;22.80;54.80
69595;DHT22;56800;52.142;5.364;2023-06-26T08:57:42;22.90;54.50
69595;DHT22;56800;52.142;5.364;2023-06-26T09:00:26;22.90;54.30
69595;DHT22;56800;52.142;5.364;2023-06-26T09:03:09;23.00;53.80
69595;DHT22;56800;52.142;5.364;2023-06-26T09:05:58;23.00;53.40
69595;DHT22;56800;52.142;5.364;2023-06-26T09:08:26;22.90;53.30
69595;DHT22;56800;52.142;5.364;2023-06-26T09:10:54;22.90;53.20
69595;DHT22;56800;52.142;5.364;2023-06-26T09:13:22;23.00;53.20
69595;DHT22;56800;52.142;5.364;2023-06-26T09:16:09;23.00;53.30
69595;DHT22;56800;52.142;5.364;2023-06-26T09:19:08;23.10;52.60
69595;DHT22;56800;52.142;5.364;2023-06-26T09:22:04;23.00;52.10
69595;DHT22;56800;52.142;5.364;2023-06-26T09:24:30;23.00;52.70
69595;DHT22;56800;52.142;5.364;2023-06-26T09:27:09;23.00;52.80
69595;DHT22;56800;52.142;5.364;2023-06-26T09:29:56;23.20;52.50
69595;DHT22;56800;52.142;5.364;2023-06-26T09:32:35;23.40;52.40
69595;DHT22;56800;52.142;5.364;2023-06-26T09:35:27;23.50;51.30
69595;DHT22;56800;52.142;5.364;2023-06-26T09:37:55;23.60;51.00
69595;DHT22;56800;52.142;5.364;2023-06-26T09:40:29;23.60;50.90
69595;DHT22;56800;52.142;5.364;2023-06-26T09:46:29;23.50;50.40
69595;DHT22;56800;52.142;5.364;2023-06-26T09:49:10;23.20;50.50
69595;DHT22;56800;52.142;5.364;2023-06-26T09:52:04;23.10;51.00
69595;DHT22;56800;52.142;5.364;2023-06-26T09:54:35;23.20;50.50
69595;DHT22;56800;52.142;5.364;2023-06-26T09:57:15;23.20;50.20
69595;DHT22;56800;52.142;5.364;2023-06-26T09:59:47;23.20;50.00
69595;DHT22;56800;52.142;5.364;2023-06-26T10:02:15;23.20;50.00
69595;DHT22;56800;52.142;5.364;2023-06-26T10:05:16;23.10;50.10
69595;DHT22;56800;52.142;5.364;2023-06-26T10:08:30;23.20;50.60
69595;DHT22;56800;52.142;5.364;2023-06-26T10:11:24;23.40;49.80
69595;DHT22;56800;52.142;5.364;2023-06-26T10:13:56;23.50;49.70
69595;DHT22;56800;52.142;5.364;2023-06-26T10:16:43;23.60;49.00
69595;DHT22;56800;52.142;5.364;2023-06-26T10:19:12;23.70;48.40
69595;DHT22;56800;52.142;5.364;2023-06-26T10:21:48;23.90;48.00
69595;DHT22;56800;52.142;5.364;2023-06-26T10:24:31;24.00;47.90
69595;DHT22;56800;52.142;5.364;2023-06-26T10:27:27;24.10;47.50
69595;DHT22;56800;52.142;5.364;2023-06-26T10:30:06;24.10;47.10
69595;DHT22;56800;52.142;5.364;2023-06-26T10:32:46;24.00;47.00
69595;DHT22;56800;52.142;5.364;2023-06-26T10:35:42;24.00;47.30
69595;DHT22;56800;52.142;5.364;2023-06-26T10:38:16;24.10;46.90
69595;DHT22;56800;52.142;5.364;2023-06-26T10:41:13;24.30;46.60
69595;DHT22;56800;52.142;5.364;2023-06-26T10:44:13;24.40;45.90
69595;DHT22;56800;52.142;5.364;2023-06-26T10:50:48;24.70;45.00
69595;DHT22;56800;52.142;5.364;2023-06-26T10:56:50;24.70;44.30
69595;DHT22;56800;52.142;5.364;2023-06-26T11:00:11;24.80;44.20
69595;DHT22;56800;52.142;5.364;2023-06-26T11:04:07;24.80;44.00
69595;DHT22;56800;52.142;5.364;2023-06-26T11:07:25;24.70;43.70
69595;DHT22;56800;52.142;5.364;2023-06-26T11:10:26;24.60;43.70
69595;DHT22;56800;52.142;5.364;2023-06-26T11:13:24;24.60;43.60
69595;DHT22;56800;52.142;5.364;2023-06-26T11:16:11;24.60;43.30
69595;DHT22;56800;52.142;5.364;2023-06-26T11:18:39;24.60;43.60
69595;DHT22;56800;52.142;5.364;2023-06-26T11:21:09;24.50;43.90
69595;DHT22;56800;52.142;5.364;2023-06-26T11:24:01;24.50;43.50
69595;DHT22;56800;52.142;5.364;2023-06-26T11:26:47;24.40;43.50
69595;DHT22;56800;52.142;5.364;2023-06-26T11:29:17;24.30;44.00
69595;DHT22;56800;52.142;5.364;2023-06-26T11:32:02;24.50;44.30
69595;DHT22;56800;52.142;5.364;2023-06-26T11:35:26;24.50;43.90
69595;DHT22;56800;52.142;5.364;2023-06-26T11:38:15;24.40;43.50
69595;DHT22;56800;52.142;5.364;2023-06-26T11:41:04;24.20;43.60
69595;DHT22;56800;52.142;5.364;2023-06-26T11:43:35;24.20;44.10
69595;DHT22;56800;52.142;5.364;2023-06-26T11:46:37;24.30;44.10
69595;DHT22;56800;52.142;5.364;2023-06-26T11:49:26;24.30;42.80
69595;DHT22;56800;52.142;5.364;2023-06-26T11:52:18;24.30;42.70
69595;DHT22;56800;52.142;5.364;2023-06-26T11:54:51;24.40;42.70
69595;DHT22;56800;52.142;5.364;2023-06-26T11:57:55;24.50;42.70
69595;DHT22;56800;52.142;5.364;2023-06-26T12:00:42;24.60;42.90
69595;DHT22;56800;52.142;5.364;2023-06-26T12:03:15;24.60;42.30
69595;DHT22;56800;52.142;5.364;2023-06-26T12:05:50;24.70;42.00
69595;DHT22;56800;52.142;5.364;2023-06-26T12:08:30;24.70;41.80
69595;DHT22;56800;52.142;5.364;2023-06-26T12:10:58;24.80;41.80
69595;DHT22;56800;52.142;5.364;2023-06-26T12:13:33;24.70;41.20
69595;DHT22;56800;52.142;5.364;2023-06-26T12:16:00;24.50;41.20
69595;DHT22;56800;52.142;5.364;2023-06-26T12:18:34;24.50;41.50
69595;DHT22;56800;52.142;5.364;2023-06-26T12:21:01;24.40;41.30
69595;DHT22;56800;52.142;5.364;2023-06-26T12:23:39;24.20;41.40
69595;DHT22;56800;52.142;5.364;2023-06-26T12:26:21;24.10;41.70
69595;DHT22;56800;52.142;5.364;2023-06-26T12:28:47;24.00;41.90
69595;DHT22;56800;52.142;5.364;2023-06-26T12:31:20;24.00;42.10
69595;DHT22;56800;52.142;5.364;2023-06-26T12:33:48;24.10;41.70
69595;DHT22;56800;52.142;5.364;2023-06-26T12:36:15;24.10;41.70
69595;DHT22;56800;52.142;5.364;2023-06-26T12:38:41;24.00;41.60
69595;DHT22;56800;52.142;5.364;2023-06-26T12:41:15;24.00;41.50
69595;DHT22;56800;52.142;5.364;2023-06-26T12:43:42;23.90;41.40
69595;DHT22;56800;52.142;5.364;2023-06-26T12:46:09;23.80;41.70
69595;DHT22;56800;52.142;5.364;2023-06-26T12:48:43;23.80;42.00
69595;DHT22;56800;52.142;5.364;2023-06-26T12:51:14;23.80;42.40
69595;DHT22;56800;52.142;5.364;2023-06-26T12:53:41;23.90;42.60
69595;DHT22;56800;52.142;5.364;2023-06-26T12:56:09;24.00;42.30
69595;DHT22;56800;52.142;5.364;2023-06-26T12:58:37;24.10;42.30
69595;DHT22;56800;52.142;5.364;2023-06-26T13:01:05;24.30;42.30
69595;DHT22;56800;52.142;5.364;2023-06-26T13:03:37;24.50;41.70
69595;DHT22;56800;52.142;5.364;2023-06-26T13:06:04;24.40;41.30
69595;DHT22;56800;52.142;5.364;2023-06-26T13:08:31;24.40;41.50
69595;DHT22;56800;52.142;5.364;2023-06-26T13:10:57;24.30;41.60
69595;DHT22;56800;52.142;5.364;2023-06-26T13:13:24;24.20;41.90
69595;DHT22;56800;52.142;5.364;2023-06-26T13:15:51;24.30;42.40
69595;DHT22;56800;52.142;5.364;2023-06-26T13:18:18;24.40;42.10
69595;DHT22;56800;52.142;5.364;2023-06-26T13:20:44;24.30;41.30
69595;DHT22;56800;52.142;5.364;2023-06-26T13:23:11;24.20;41.50
69595;DHT22;56800;52.142;5.364;2023-06-26T13:25:38;24.10;41.70
69595;DHT22;56800;52.142;5.364;2023-06-26T13:28:05;24.10;41.80
69595;DHT22;56800;52.142;5.364;2023-06-26T13:30:31;24.10;41.90
69595;DHT22;56800;52.142;5.364;2023-06-26T13:32:58;24.30;42.30
69595;DHT22;56800;52.142;5.364;2023-06-26T13:35:25;24.50;42.30
69595;DHT22;56800;52.142;5.364;2023-06-26T13:37:51;24.70;41.90
69595;DHT22;56800;52.142;5.364;2023-06-26T13:40:18;24.70;41.10
69595;DHT22;56800;52.142;5.364;2023-06-26T13:42:45;24.70;40.90
69595;DHT22;56800;52.142;5.364;2023-06-26T13:45:12;24.90;40.80
69595;DHT22;56800;52.142;5.364;2023-06-26T13:47:56;24.90;40.00
69595;DHT22;56800;52.142;5.364;2023-06-26T13:50:23;24.70;39.70
69595;DHT22;56800;52.142;5.364;2023-06-26T13:52:50;24.70;39.70
69595;DHT22;56800;52.142;5.364;2023-06-26T13:55:17;24.80;40.10
69595;DHT22;56800;52.142;5.364;2023-06-26T13:57:44;25.00;40.00
69595;DHT22;56800;52.142;5.364;2023-06-26T14:00:11;25.10;40.00
69595;DHT22;56800;52.142;5.364;2023-06-26T14:02:39;25.00;39.60
69595;DHT22;56800;52.142;5.364;2023-06-26T14:05:06;25.00;39.90
69595;DHT22;56800;52.142;5.364;2023-06-26T14:07:33;25.00;39.90
69595;DHT22;56800;52.142;5.364;2023-06-26T14:09:59;25.10;39.60
69595;DHT22;56800;52.142;5.364;2023-06-26T14:12:26;25.20;39.60
69595;DHT22;56800;52.142;5.364;2023-06-26T14:14:53;25.30;39.70
69595;DHT22;56800;52.142;5.364;2023-06-26T14:17:20;25.40;38.90
69595;DHT22;56800;52.142;5.364;2023-06-26T14:19:46;25.40;38.50
69595;DHT22;56800;52.142;5.364;2023-06-26T14:22:13;25.30;38.00
69595;DHT22;56800;52.142;5.364;2023-06-26T14:24:40;25.10;38.20
69595;DHT22;56800;52.142;5.364;2023-06-26T14:27:07;25.00;38.60
69595;DHT22;56800;52.142;5.364;2023-06-26T14:29:33;25.10;38.80
69595;DHT22;56800;52.142;5.364;2023-06-26T14:32:00;25.20;38.90
69595;DHT22;56800;52.142;5.364;2023-06-26T14:34:27;25.30;38.60
69595;DHT22;56800;52.142;5.364;2023-06-26T14:36:54;25.30;38.60
69595;DHT22;56800;52.142;5.364;2023-06-26T14:39:20;25.40;38.50
69595;DHT22;56800;52.142;5.364;2023-06-26T14:41:48;25.50;38.00
69595;DHT22;56800;52.142;5.364;2023-06-26T14:44:15;25.30;37.90
69595;DHT22;56800;52.142;5.364;2023-06-26T14:46:43;25.30;37.90
69595;DHT22;56800;52.142;5.364;2023-06-26T14:49:10;25.30;38.00
69595;DHT22;56800;52.142;5.364;2023-06-26T14:51:36;25.20;38.10
69595;DHT22;56800;52.142;5.364;2023-06-26T14:54:05;25.20;38.70
69595;DHT22;56800;52.142;5.364;2023-06-26T14:56:32;25.30;38.90
69595;DHT22;56800;52.142;5.364;2023-06-26T14:58:59;25.50;38.40
69595;DHT22;56800;52.142;5.364;2023-06-26T15:01:25;25.60;38.00
69595;DHT22;56800;52.142;5.364;2023-06-26T15:03:52;25.70;38.20
69595;DHT22;56800;52.142;5.364;2023-06-26T15:06:19;25.80;38.20
69595;DHT22;56800;52.142;5.364;2023-06-26T15:08:46;25.90;37.90
69595;DHT22;56800;52.142;5.364;2023-06-26T15:11:12;25.90;37.80
69595;DHT22;56800;52.142;5.364;2023-06-26T15:13:39;25.90;37.40
69595;DHT22;56800;52.142;5.364;2023-06-26T15:16:06;25.90;37.00
69595;DHT22;56800;52.142;5.364;2023-06-26T15:18:32;25.90;36.90
69595;DHT22;56800;52.142;5.364;2023-06-26T15:20:59;25.80;37.10
69595;DHT22;56800;52.142;5.364;2023-06-26T15:23:26;25.60;37.20
69595;DHT22;56800;52.142;5.364;2023-06-26T15:25:53;25.50;38.70
69595;DHT22;56800;52.142;5.364;2023-06-26T15:28:20;25.50;37.80
69595;DHT22;56800;52.142;5.364;2023-06-26T15:30:47;25.50;38.10
69595;DHT22;56800;52.142;5.364;2023-06-26T15:33:14;25.60;37.80
69595;DHT22;56800;52.142;5.364;2023-06-26T15:35:41;25.70;37.30
69595;DHT22;56800;52.142;5.364;2023-06-26T15:38:08;25.70;37.00
69595;DHT22;56800;52.142;5.364;2023-06-26T15:40:35;25.70;37.00
69595;DHT22;56800;52.142;5.364;2023-06-26T15:43:02;25.60;37.10
69595;DHT22;56800;52.142;5.364;2023-06-26T15:45:30;25.60;37.20
69595;DHT22;56800;52.142;5.364;2023-06-26T15:47:56;25.50;37.10
69595;DHT22;56800;52.142;5.364;2023-06-26T15:50:23;25.30;37.30
69595;DHT22;56800;52.142;5.364;2023-06-26T15:52:51;25.10;37.90
69595;DHT22;56800;52.142;5.364;2023-06-26T15:55:18;25.00;38.20
69595;DHT22;56800;52.142;5.364;2023-06-26T15:57:44;25.10;38.60
69595;DHT22;56800;52.142;5.364;2023-06-26T16:00:12;25.10;38.70
69595;DHT22;56800;52.142;5.364;2023-06-26T16:02:39;25.10;38.50
69595;DHT22;56800;52.142;5.364;2023-06-26T16:05:06;25.00;37.70
69595;DHT22;56800;52.142;5.364;2023-06-26T16:07:33;24.80;37.70
69595;DHT22;56800;52.142;5.364;2023-06-26T16:10:20;24.70;37.80
69595;DHT22;56800;52.142;5.364;2023-06-26T16:12:47;24.50;38.40
69595;DHT22;56800;52.142;5.364;2023-06-26T16:15:14;24.50;38.60